sensor_id;sensor_type;location;lat;lon;timestamp;P1;durP1;ratioP1;P2;durP2;ratioP2
1703;SDS011;849;48.780;9.216;2023-06-04T00:02:13;42.03;;;2.30;;
1703;SDS011;849;48.780;9.216;2023-06-04T00:04:43;42.00;;;2.50;;
1703;SDS011;849;48.780;9.216;2023-06-04T00:07:14;42.20;;;2.63;;
1703;SDS011;849;48.780;9.216;2023-06-04T00:09:45;42.10;;;2.50;;
1703;SDS011;849;48.780;9.216;2023-06-04T00:12:17;42.17;;;2.50;;
1703;SDS011;849;48.780;9.216;2023-06-04T00:14:48;42.17;;;2.40;;
1703;SDS011;849;48.780;9.216;2023-06-04T00:17:19;42.13;;;2.50;;
1703;SDS011;849;48.780;9.216;2023-06-04T00:19:49;41.93;;;2.60;;
1703;SDS011;849;48.780;9.216;2023-06-04T00:22:20;42.30;;;2.50;;
1703;SDS011;849;48.780;9.216;2023-06-04T00:24:51;42.13;;;2.53;;
1703;SDS011;849;48.780;9.216;2023-06-04T00:27:22;42.13;;;2.50;;
1703;SDS011;849;48.780;9.216;2023-06-04T00:29:53;42.33;;;2.60;;
1703;SDS011;849;48.780;9.216;2023-06-04T00:32:23;42.07;;;2.30;;
1703;SDS011;849;48.780;9.216;2023-06-04T00:34:54;42.07;;;2.47;;
1703;SDS011;849;48.780;9.216;2023-06-04T00:37:28;41.97;;;2.60;;
1703;SDS011;849;48.780;9.216;2023-06-04T00:39:59;42.03;;;2.30;;
1703;SDS011;849;48.780;9.216;2023-06-04T00:42:30;42.00;;;2.30;;
1703;SDS011;849;48.780;9.216;2023-06-04T00:45:01;41.87;;;2.20;;
1703;SDS011;849;48.780;9.216;2023-06-04T00:47:32;41.90;;;2.30;;
1703;SDS011;849;48.780;9.216;2023-06-04T00:50:03;42.23;;;2.60;;
1703;SDS011;849;48.780;9.216;2023-06-04T00:52:35;42.10;;;2.93;;
1703;SDS011;849;48.780;9.216;2023-06-04T00:55:06;42.07;;;2.60;;
1703;SDS011;849;48.780;9.216;2023-06-04T00:57:38;41.97;;;2.20;;
1703;SDS011;849;48.780;9.216;2023-06-04T01:00:09;42.00;;;2.30;;
1703;SDS011;849;48.780;9.216;2023-06-04T01:02:41;41.93;;;2.37;;
1703;SDS011;849;48.780;9.216;2023-06-04T01:05:15;42.07;;;2.23;;
1703;SDS011;849;48.780;9.216;2023-06-04T01:07:47;42.03;;;2.53;;
1703;SDS011;849;48.780;9.216;2023-06-04T01:10:19;42.07;;;2.43;;
1703;SDS011;849;48.780;9.216;2023-06-04T01:12:49;42.13;;;2.30;;
1703;SDS011;849;48.780;9.216;2023-06-04T01:15:20;41.97;;;2.23;;
1703;SDS011;849;48.780;9.216;2023-06-04T01:17:52;41.97;;;2.37;;
1703;SDS011;849;48.780;9.216;2023-06-04T01:23:19;41.97;;;2.40;;
1703;SDS011;849;48.780;9.216;2023-06-04T01:26:04;41.87;;;2.47;;
1703;SDS011;849;48.780;9.216;2023-06-04T01:28:35;42.00;;;2.23;;
1703;SDS011;849;48.780;9.216;2023-06-04T01:31:07;42.07;;;2.30;;
1703;SDS011;849;48.780;9.216;2023-06-04T01:33:38;42.00;;;2.00;;
1703;SDS011;849;48.780;9.216;2023-06-04T01:36:10;41.90;;;2.43;;
1703;SDS011;849;48.780;9.216;2023-06-04T01:38:42;41.97;;;2.30;;
1703;SDS011;849;48.780;9.216;2023-06-04T01:41:13;42.13;;;2.27;;
1703;SDS011;849;48.780;9.216;2023-06-04T01:43:44;42.10;;;2.40;;
1703;SDS011;849;48.780;9.216;2023-06-04T01:46:14;42.10;;;2.50;;
1703;SDS011;849;48.780;9.216;2023-06-04T01:48:45;42.07;;;2.40;;
1703;SDS011;849;48.780;9.216;2023-06-04T01:51:19;42.10;;;2.30;;
1703;SDS011;849;48.780;9.216;2023-06-04T01:53:50;42.07;;;2.60;;
1703;SDS011;849;48.780;9.216;2023-06-04T01:56:21;42.07;;;2.30;;
1703;SDS011;849;48.780;9.216;2023-06-04T01:58:51;42.00;;;2.40;;
1703;SDS011;849;48.780;9.216;2023-06-04T02:01:22;42.10;;;2.50;;
1703;SDS011;849;48.780;9.216;2023-06-04T02:03:53;42.10;;;2.50;;
1703;SDS011;849;48.780;9.216;2023-06-04T02:06:24;42.20;;;2.60;;
1703;SDS011;849;48.780;9.216;2023-06-04T02:08:55;42.00;;;2.40;;
1703;SDS011;849;48.780;9.216;2023-06-04T02:11:26;42.07;;;2.60;;
1703;SDS011;849;48.780;9.216;2023-06-04T02:13:57;42.10;;;2.47;;
1703;SDS011;849;48.780;9.216;2023-06-04T02:16:28;42.03;;;2.40;;
1703;SDS011;849;48.780;9.216;2023-06-04T02:18:58;42.03;;;2.40;;
1703;SDS011;849;48.780;9.216;2023-06-04T02:21:29;42.07;;;2.20;;
1703;SDS011;849;48.780;9.216;2023-06-04T02:24:00;42.07;;;2.70;;
1703;SDS011;849;48.780;9.216;2023-06-04T02:26:31;42.07;;;2.33;;
1703;SDS011;849;48.780;9.216;2023-06-04T02:28:57;42.03;;;2.30;;
1703;SDS011;849;48.780;9.216;2023-06-04T02:31:28;42.03;;;2.30;;
1703;SDS011;849;48.780;9.216;2023-06-04T02:33:59;42.10;;;2.40;;
1703;SDS011;849;48.780;9.216;2023-06-04T02:36:30;42.07;;;2.50;;
1703;SDS011;849;48.780;9.216;2023-06-04T02:39:01;42.10;;;2.33;;
1703;SDS011;849;48.780;9.216;2023-06-04T02:41:31;42.07;;;2.33;;
1703;SDS011;849;48.780;9.216;2023-06-04T02:44:02;42.03;;;2.40;;
1703;SDS011;849;48.780;9.216;2023-06-04T02:46:33;42.00;;;2.43;;
1703;SDS011;849;48.780;9.216;2023-06-04T02:49:04;42.07;;;2.33;;
1703;SDS011;849;48.780;9.216;2023-06-04T02:51:35;42.03;;;2.10;;
1703;SDS011;849;48.780;9.216;2023-06-04T02:54:06;42.03;;;2.20;;
1703;SDS011;849;48.780;9.216;2023-06-04T02:56:37;42.20;;;2.40;;
1703;SDS011;849;48.780;9.216;2023-06-04T02:59:07;41.93;;;2.20;;
1703;SDS011;849;48.780;9.216;2023-06-04T03:01:39;42.00;;;2.50;;
1703;SDS011;849;48.780;9.216;2023-06-04T03:04:10;42.07;;;2.43;;
1703;SDS011;849;48.780;9.216;2023-06-04T03:06:44;41.97;;;2.53;;
1703;SDS011;849;48.780;9.216;2023-06-04T03:09:16;41.77;;;2.30;;
1703;SDS011;849;48.780;9.216;2023-06-04T03:11:47;41.77;;;2.30;;
1703;SDS011;849;48.780;9.216;2023-06-04T03:14:13;41.93;;;2.50;;
1703;SDS011;849;48.780;9.216;2023-06-04T03:16:44;41.70;;;2.40;;
1703;SDS011;849;48.780;9.216;2023-06-04T03:19:16;41.63;;;2.20;;
1703;SDS011;849;48.780;9.216;2023-06-04T03:21:47;41.57;;;2.10;;
1703;SDS011;849;48.780;9.216;2023-06-04T03:24:22;41.60;;;2.03;;
1703;SDS011;849;48.780;9.216;2023-06-04T03:26:53;41.70;;;2.53;;
1703;SDS011;849;48.780;9.216;2023-06-04T03:29:23;41.50;;;2.30;;
1703;SDS011;849;48.780;9.216;2023-06-04T03:31:54;41.67;;;2.20;;
1703;SDS011;849;48.780;9.216;2023-06-04T03:34:25;41.43;;;2.23;;
1703;SDS011;849;48.780;9.216;2023-06-04T03:36:56;41.60;;;2.50;;
1703;SDS011;849;48.780;9.216;2023-06-04T03:39:28;41.67;;;2.40;;
1703;SDS011;849;48.780;9.216;2023-06-04T03:41:58;41.40;;;2.13;;
1703;SDS011;849;48.780;9.216;2023-06-04T03:44:29;41.33;;;2.20;;
1703;SDS011;849;48.780;9.216;2023-06-04T03:47:00;41.47;;;2.23;;
1703;SDS011;849;48.780;9.216;2023-06-04T03:49:31;41.43;;;2.40;;
1703;SDS011;849;48.780;9.216;2023-06-04T03:52:02;41.40;;;2.10;;
1703;SDS011;849;48.780;9.216;2023-06-04T03:54:33;41.43;;;2.13;;
1703;SDS011;849;48.780;9.216;2023-06-04T03:57:03;41.43;;;2.40;;
1703;SDS011;849;48.780;9.216;2023-06-04T03:59:34;41.27;;;2.13;;
1703;SDS011;849;48.780;9.216;2023-06-04T04:02:05;41.30;;;2.10;;
1703;SDS011;849;48.780;9.216;2023-06-04T04:04:36;41.30;;;1.97;;
1703;SDS011;849;48.780;9.216;2023-06-04T04:07:07;41.27;;;2.10;;
1703;SDS011;849;48.780;9.216;2023-06-04T04:09:38;41.43;;;2.00;;
1703;SDS011;849;48.780;9.216;2023-06-04T04:12:08;41.53;;;2.20;;
1703;SDS011;849;48.780;9.216;2023-06-04T04:14:39;41.30;;;2.00;;
1703;SDS011;849;48.780;9.216;2023-06-04T04:17:10;41.23;;;2.03;;
1703;SDS011;849;48.780;9.216;2023-06-04T04:19:41;41.30;;;2.10;;
1703;SDS011;849;48.780;9.216;2023-06-04T04:22:12;41.37;;;2.20;;
1703;SDS011;849;48.780;9.216;2023-06-04T04:24:43;41.20;;;1.90;;
1703;SDS011;849;48.780;9.216;2023-06-04T04:27:14;41.57;;;2.20;;
1703;SDS011;849;48.780;9.216;2023-06-04T04:29:46;41.30;;;2.20;;
1703;SDS011;849;48.780;9.216;2023-06-04T04:32:18;41.23;;;2.00;;
1703;SDS011;849;48.780;9.216;2023-06-04T04:34:52;41.50;;;2.10;;
1703;SDS011;849;48.780;9.216;2023-06-04T04:37:24;41.33;;;2.07;;
1703;SDS011;849;48.780;9.216;2023-06-04T04:39:56;41.47;;;2.33;;
1703;SDS011;849;48.780;9.216;2023-06-04T04:42:27;41.37;;;2.30;;
1703;SDS011;849;48.780;9.216;2023-06-04T04:44:58;41.33;;;2.00;;
1703;SDS011;849;48.780;9.216;2023-06-04T04:47:28;41.63;;;2.20;;
1703;SDS011;849;48.780;9.216;2023-06-04T04:49:59;41.60;;;2.30;;
1703;SDS011;849;48.780;9.216;2023-06-04T04:52:30;41.83;;;2.20;;
1703;SDS011;849;48.780;9.216;2023-06-04T04:54:56;41.83;;;2.47;;
1703;SDS011;849;48.780;9.216;2023-06-04T04:57:28;41.80;;;2.20;;
1703;SDS011;849;48.780;9.216;2023-06-04T04:59:58;42.07;;;2.50;;
1703;SDS011;849;48.780;9.216;2023-06-04T05:02:29;41.93;;;2.23;;
1703;SDS011;849;48.780;9.216;2023-06-04T05:05:00;41.93;;;2.33;;
1703;SDS011;849;48.780;9.216;2023-06-04T05:07:31;42.17;;;2.20;;
1703;SDS011;849;48.780;9.216;2023-06-04T05:09:57;42.07;;;2.03;;
1703;SDS011;849;48.780;9.216;2023-06-04T05:12:29;41.97;;;2.10;;
1703;SDS011;849;48.780;9.216;2023-06-04T05:14:57;42.03;;;2.20;;
1703;SDS011;849;48.780;9.216;2023-06-04T05:17:28;42.13;;;2.57;;
1703;SDS011;849;48.780;9.216;2023-06-04T05:20:02;42.07;;;2.40;;
1703;SDS011;849;48.780;9.216;2023-06-04T05:22:34;41.90;;;2.30;;
1703;SDS011;849;48.780;9.216;2023-06-04T05:25:06;42.07;;;2.57;;
1703;SDS011;849;48.780;9.216;2023-06-04T05:27:39;42.00;;;2.50;;
1703;SDS011;849;48.780;9.216;2023-06-04T05:30:10;42.27;;;2.40;;
1703;SDS011;849;48.780;9.216;2023-06-04T05:32:41;42.10;;;2.50;;
1703;SDS011;849;48.780;9.216;2023-06-04T05:35:12;42.27;;;2.50;;
1703;SDS011;849;48.780;9.216;2023-06-04T05:37:43;42.20;;;2.40;;
1703;SDS011;849;48.780;9.216;2023-06-04T05:40:15;42.07;;;2.23;;
1703;SDS011;849;48.780;9.216;2023-06-04T05:42:47;42.30;;;2.40;;
1703;SDS011;849;48.780;9.216;2023-06-04T05:45:18;42.30;;;2.43;;
1703;SDS011;849;48.780;9.216;2023-06-04T05:47:49;42.30;;;2.40;;
1703;SDS011;849;48.780;9.216;2023-06-04T05:50:20;42.20;;;2.30;;
1703;SDS011;849;48.780;9.216;2023-06-04T05:52:51;42.37;;;2.50;;
1703;SDS011;849;48.780;9.216;2023-06-04T05:55:21;42.20;;;2.40;;
1703;SDS011;849;48.780;9.216;2023-06-04T05:57:52;42.20;;;2.20;;
1703;SDS011;849;48.780;9.216;2023-06-04T06:00:23;42.47;;;2.20;;
1703;SDS011;849;48.780;9.216;2023-06-04T06:02:54;42.47;;;2.30;;
1703;SDS011;849;48.780;9.216;2023-06-04T06:05:25;42.43;;;2.40;;
1703;SDS011;849;48.780;9.216;2023-06-04T06:07:56;42.40;;;2.70;;
1703;SDS011;849;48.780;9.216;2023-06-04T06:10:26;42.50;;;2.30;;
1703;SDS011;849;48.780;9.216;2023-06-04T06:12:57;42.67;;;2.47;;
1703;SDS011;849;48.780;9.216;2023-06-04T06:15:28;42.53;;;2.37;;
1703;SDS011;849;48.780;9.216;2023-06-04T06:17:59;42.40;;;2.20;;
1703;SDS011;849;48.780;9.216;2023-06-04T06:20:25;42.37;;;2.30;;
1703;SDS011;849;48.780;9.216;2023-06-04T06:22:56;42.73;;;2.50;;
1703;SDS011;849;48.780;9.216;2023-06-04T06:25:27;42.50;;;2.30;;
1703;SDS011;849;48.780;9.216;2023-06-04T06:27:57;42.50;;;2.30;;
1703;SDS011;849;48.780;9.216;2023-06-04T06:30:29;42.43;;;2.50;;
1703;SDS011;849;48.780;9.216;2023-06-04T06:32:55;42.37;;;2.43;;
1703;SDS011;849;48.780;9.216;2023-06-04T06:35:21;42.30;;;2.20;;
1703;SDS011;849;48.780;9.216;2023-06-04T06:37:52;42.47;;;2.30;;
1703;SDS011;849;48.780;9.216;2023-06-04T06:40:23;42.47;;;2.70;;
1703;SDS011;849;48.780;9.216;2023-06-04T06:42:54;42.50;;;2.40;;
1703;SDS011;849;48.780;9.216;2023-06-04T06:45:20;42.07;;;2.30;;
1703;SDS011;849;48.780;9.216;2023-06-04T06:47:51;41.87;;;2.40;;
1703;SDS011;849;48.780;9.216;2023-06-04T06:50:22;41.90;;;2.23;;
1703;SDS011;849;48.780;9.216;2023-06-04T06:52:53;41.87;;;2.47;;
1703;SDS011;849;48.780;9.216;2023-06-04T06:55:23;42.17;;;2.40;;
1703;SDS011;849;48.780;9.216;2023-06-04T06:57:54;42.03;;;2.57;;
1703;SDS011;849;48.780;9.216;2023-06-04T07:00:26;42.13;;;2.50;;
1703;SDS011;849;48.780;9.216;2023-06-04T07:02:58;42.03;;;2.30;;
1703;SDS011;849;48.780;9.216;2023-06-04T07:05:29;44.70;;;1.90;;
1703;SDS011;849;48.780;9.216;2023-06-04T07:08:00;41.90;;;2.50;;
1703;SDS011;849;48.780;9.216;2023-06-04T07:10:32;41.90;;;2.20;;
1703;SDS011;849;48.780;9.216;2023-06-04T07:13:02;41.90;;;2.30;;
1703;SDS011;849;48.780;9.216;2023-06-04T07:15:33;42.03;;;2.60;;
1703;SDS011;849;48.780;9.216;2023-06-04T07:18:04;41.97;;;2.30;;
1703;SDS011;849;48.780;9.216;2023-06-04T07:20:35;41.90;;;2.40;;
1703;SDS011;849;48.780;9.216;2023-06-04T07:23:06;41.97;;;2.47;;
1703;SDS011;849;48.780;9.216;2023-06-04T07:25:37;42.00;;;2.57;;
1703;SDS011;849;48.780;9.216;2023-06-04T07:28:08;41.97;;;2.40;;
1703;SDS011;849;48.780;9.216;2023-06-04T07:30:38;41.90;;;2.30;;
1703;SDS011;849;48.780;9.216;2023-06-04T07:33:10;42.00;;;2.50;;
1703;SDS011;849;48.780;9.216;2023-06-04T07:35:40;42.27;;;2.60;;
1703;SDS011;849;48.780;9.216;2023-06-04T07:38:11;41.80;;;2.60;;
1703;SDS011;849;48.780;9.216;2023-06-04T07:40:42;41.90;;;2.40;;
1703;SDS011;849;48.780;9.216;2023-06-04T07:43:13;41.80;;;2.50;;
1703;SDS011;849;48.780;9.216;2023-06-04T07:45:43;41.97;;;2.37;;
1703;SDS011;849;48.780;9.216;2023-06-04T07:48:14;42.03;;;2.60;;
1703;SDS011;849;48.780;9.216;2023-06-04T07:50:45;41.93;;;2.50;;
1703;SDS011;849;48.780;9.216;2023-06-04T07:53:16;42.00;;;2.50;;
1703;SDS011;849;48.780;9.216;2023-06-04T07:55:46;42.00;;;2.40;;
1703;SDS011;849;48.780;9.216;2023-06-04T07:58:17;41.90;;;2.50;;
1703;SDS011;849;48.780;9.216;2023-06-04T08:00:48;41.90;;;2.30;;
1703;SDS011;849;48.780;9.216;2023-06-04T08:03:19;41.97;;;2.50;;
1703;SDS011;849;48.780;9.216;2023-06-04T08:05:50;42.07;;;2.30;;
1703;SDS011;849;48.780;9.216;2023-06-04T08:08:21;42.03;;;2.50;;
1703;SDS011;849;48.780;9.216;2023-06-04T08:10:52;41.93;;;2.47;;
1703;SDS011;849;48.780;9.216;2023-06-04T08:13:23;42.07;;;2.43;;
1703;SDS011;849;48.780;9.216;2023-06-04T08:15:53;42.13;;;2.30;;
1703;SDS011;849;48.780;9.216;2023-06-04T08:18:24;42.17;;;2.40;;
1703;SDS011;849;48.780;9.216;2023-06-04T08:20:56;41.90;;;2.60;;
1703;SDS011;849;48.780;9.216;2023-06-04T08:23:22;41.90;;;2.50;;
1703;SDS011;849;48.780;9.216;2023-06-04T08:25:52;42.07;;;2.43;;
1703;SDS011;849;48.780;9.216;2023-06-04T08:28:23;41.97;;;2.43;;
1703;SDS011;849;48.780;9.216;2023-06-04T08:30:54;41.97;;;2.27;;
1703;SDS011;849;48.780;9.216;2023-06-04T08:33:25;41.97;;;2.50;;
1703;SDS011;849;48.780;9.216;2023-06-04T08:35:56;42.10;;;2.77;;
1703;SDS011;849;48.780;9.216;2023-06-04T08:38:27;41.97;;;2.30;;
1703;SDS011;849;48.780;9.216;2023-06-04T08:41:00;42.03;;;2.40;;
1703;SDS011;849;48.780;9.216;2023-06-04T08:43:39;42.00;;;2.30;;
1703;SDS011;849;48.780;9.216;2023-06-04T08:46:14;41.97;;;2.30;;
1703;SDS011;849;48.780;9.216;2023-06-04T08:48:47;42.20;;;3.67;;
1703;SDS011;849;48.780;9.216;2023-06-04T08:51:19;42.00;;;2.90;;
1703;SDS011;849;48.780;9.216;2023-06-04T08:53:50;41.80;;;2.57;;
1703;SDS011;849;48.780;9.216;2023-06-04T08:56:23;41.97;;;2.60;;
1703;SDS011;849;48.780;9.216;2023-06-04T08:58:55;42.07;;;2.50;;
1703;SDS011;849;48.780;9.216;2023-06-04T09:01:34;42.07;;;2.70;;
1703;SDS011;849;48.780;9.216;2023-06-04T09:04:07;42.10;;;2.47;;
1703;SDS011;849;48.780;9.216;2023-06-04T09:06:38;41.87;;;2.23;;
1703;SDS011;849;48.780;9.216;2023-06-04T09:09:10;42.00;;;2.40;;
1703;SDS011;849;48.780;9.216;2023-06-04T09:11:46;42.00;;;2.30;;
1703;SDS011;849;48.780;9.216;2023-06-04T09:14:21;41.90;;;2.30;;
1703;SDS011;849;48.780;9.216;2023-06-04T09:16:53;41.97;;;2.33;;
1703;SDS011;849;48.780;9.216;2023-06-04T09:19:25;42.00;;;2.20;;
1703;SDS011;849;48.780;9.216;2023-06-04T09:21:56;41.97;;;2.40;;
1703;SDS011;849;48.780;9.216;2023-06-04T09:24:44;41.90;;;2.53;;
1703;SDS011;849;48.780;9.216;2023-06-04T09:27:23;42.03;;;2.40;;
1703;SDS011;849;48.780;9.216;2023-06-04T09:29:56;42.17;;;2.53;;
1703;SDS011;849;48.780;9.216;2023-06-04T09:32:29;42.17;;;2.50;;
1703;SDS011;849;48.780;9.216;2023-06-04T09:35:10;42.07;;;2.60;;
1703;SDS011;849;48.780;9.216;2023-06-04T09:37:51;41.87;;;2.23;;
1703;SDS011;849;48.780;9.216;2023-06-04T09:40:24;41.97;;;2.40;;
1703;SDS011;849;48.780;9.216;2023-06-04T09:43:05;42.13;;;2.50;;
1703;SDS011;849;48.780;9.216;2023-06-04T09:45:36;42.00;;;2.30;;
1703;SDS011;849;48.780;9.216;2023-06-04T09:48:07;42.07;;;2.23;;
1703;SDS011;849;48.780;9.216;2023-06-04T09:50:38;42.03;;;2.40;;
1703;SDS011;849;48.780;9.216;2023-06-04T09:53:18;42.03;;;2.20;;
1703;SDS011;849;48.780;9.216;2023-06-04T09:55:56;43.10;;;2.20;;
1703;SDS011;849;48.780;9.216;2023-06-04T09:58:28;42.13;;;2.50;;
1703;SDS011;849;48.780;9.216;2023-06-04T10:01:01;44.80;;;1.60;;
1703;SDS011;849;48.780;9.216;2023-06-04T10:03:35;41.80;;;2.50;;
1703;SDS011;849;48.780;9.216;2023-06-04T10:06:06;44.00;;;2.60;;
1703;SDS011;849;48.780;9.216;2023-06-04T10:08:38;41.97;;;2.33;;
1703;SDS011;849;48.780;9.216;2023-06-04T10:11:11;42.17;;;2.30;;
1703;SDS011;849;48.780;9.216;2023-06-04T10:13:45;42.17;;;2.40;;
1703;SDS011;849;48.780;9.216;2023-06-04T10:16:21;42.13;;;2.30;;
1703;SDS011;849;48.780;9.216;2023-06-04T10:18:54;42.20;;;2.20;;
1703;SDS011;849;48.780;9.216;2023-06-04T10:21:26;41.93;;;2.23;;
1703;SDS011;849;48.780;9.216;2023-06-04T10:23:58;41.97;;;2.17;;
1703;SDS011;849;48.780;9.216;2023-06-04T10:26:29;42.07;;;2.43;;
1703;SDS011;849;48.780;9.216;2023-06-04T10:29:01;41.87;;;2.17;;
1703;SDS011;849;48.780;9.216;2023-06-04T10:31:32;41.97;;;2.30;;
1703;SDS011;849;48.780;9.216;2023-06-04T10:34:03;42.07;;;2.20;;
1703;SDS011;849;48.780;9.216;2023-06-04T10:36:42;42.27;;;2.60;;
1703;SDS011;849;48.780;9.216;2023-06-04T10:39:24;42.13;;;2.47;;
1703;SDS011;849;48.780;9.216;2023-06-04T10:42:02;42.07;;;2.40;;
1703;SDS011;849;48.780;9.216;2023-06-04T10:44:44;41.50;;;2.20;;
1703;SDS011;849;48.780;9.216;2023-06-04T10:49:55;42.10;;;2.53;;
1703;SDS011;849;48.780;9.216;2023-06-04T10:52:36;41.60;;;2.50;;
1703;SDS011;849;48.780;9.216;2023-06-04T10:55:04;42.10;;;2.30;;
1703;SDS011;849;48.780;9.216;2023-06-04T10:57:37;41.60;;;2.50;;
1703;SDS011;849;48.780;9.216;2023-06-04T11:00:08;42.17;;;2.50;;
1703;SDS011;849;48.780;9.216;2023-06-04T11:02:49;42.13;;;2.40;;
1703;SDS011;849;48.780;9.216;2023-06-04T11:05:21;41.90;;;2.27;;
1703;SDS011;849;48.780;9.216;2023-06-04T11:07:52;42.10;;;2.40;;
1703;SDS011;849;48.780;9.216;2023-06-04T11:10:29;41.87;;;2.40;;
1703;SDS011;849;48.780;9.216;2023-06-04T11:13:05;42.00;;;2.40;;
1703;SDS011;849;48.780;9.216;2023-06-04T11:15:38;41.87;;;2.30;;
1703;SDS011;849;48.780;9.216;2023-06-04T11:20:47;42.27;;;2.60;;
1703;SDS011;849;48.780;9.216;2023-06-04T11:23:20;42.03;;;2.50;;
1703;SDS011;849;48.780;9.216;2023-06-04T11:25:53;42.07;;;2.50;;
1703;SDS011;849;48.780;9.216;2023-06-04T11:28:25;42.27;;;2.47;;
1703;SDS011;849;48.780;9.216;2023-06-04T11:30:59;42.13;;;2.30;;
1703;SDS011;849;48.780;9.216;2023-06-04T11:33:45;41.50;;;2.40;;
1703;SDS011;849;48.780;9.216;2023-06-04T11:36:24;41.57;;;2.40;;
1703;SDS011;849;48.780;9.216;2023-06-04T11:39:00;42.17;;;2.40;;
1703;SDS011;849;48.780;9.216;2023-06-04T11:41:33;42.13;;;2.60;;
1703;SDS011;849;48.780;9.216;2023-06-04T11:44:05;41.60;;;2.10;;
1703;SDS011;849;48.780;9.216;2023-06-04T11:46:39;41.97;;;2.30;;
1703;SDS011;849;48.780;9.216;2023-06-04T11:49:11;41.20;;;2.17;;
1703;SDS011;849;48.780;9.216;2023-06-04T11:51:49;41.47;;;2.30;;
1703;SDS011;849;48.780;9.216;2023-06-04T11:54:20;41.87;;;2.40;;
1703;SDS011;849;48.780;9.216;2023-06-04T11:56:51;41.70;;;2.20;;
1703;SDS011;849;48.780;9.216;2023-06-04T11:59:23;41.90;;;2.30;;
1703;SDS011;849;48.780;9.216;2023-06-04T12:01:55;41.70;;;2.00;;
1703;SDS011;849;48.780;9.216;2023-06-04T12:04:29;41.27;;;2.30;;
1703;SDS011;849;48.780;9.216;2023-06-04T12:07:01;41.40;;;2.20;;
1703;SDS011;849;48.780;9.216;2023-06-04T12:09:34;41.50;;;2.10;;
1703;SDS011;849;48.780;9.216;2023-06-04T12:12:07;41.40;;;2.10;;
1703;SDS011;849;48.780;9.216;2023-06-04T12:14:38;41.90;;;2.50;;
1703;SDS011;849;48.780;9.216;2023-06-04T12:17:09;41.57;;;2.20;;
1703;SDS011;849;48.780;9.216;2023-06-04T12:19:45;41.83;;;2.20;;
1703;SDS011;849;48.780;9.216;2023-06-04T12:22:20;41.77;;;2.30;;
1703;SDS011;849;48.780;9.216;2023-06-04T12:24:52;41.73;;;2.27;;
1703;SDS011;849;48.780;9.216;2023-06-04T12:27:27;41.10;;;2.20;;
1703;SDS011;849;48.780;9.216;2023-06-04T12:29:59;42.07;;;2.50;;
1703;SDS011;849;48.780;9.216;2023-06-04T12:32:34;42.03;;;2.40;;
1703;SDS011;849;48.780;9.216;2023-06-04T12:35:05;41.70;;;2.40;;
1703;SDS011;849;48.780;9.216;2023-06-04T12:37:36;41.53;;;2.50;;
1703;SDS011;849;48.780;9.216;2023-06-04T12:40:08;41.30;;;2.20;;
1703;SDS011;849;48.780;9.216;2023-06-04T12:42:39;41.30;;;2.30;;
1703;SDS011;849;48.780;9.216;2023-06-04T12:45:10;42.00;;;2.60;;
1703;SDS011;849;48.780;9.216;2023-06-04T12:47:43;41.70;;;2.30;;
1703;SDS011;849;48.780;9.216;2023-06-04T12:50:15;42.03;;;2.33;;
1703;SDS011;849;48.780;9.216;2023-06-04T12:52:45;41.70;;;2.40;;
1703;SDS011;849;48.780;9.216;2023-06-04T12:55:16;41.30;;;2.30;;
1703;SDS011;849;48.780;9.216;2023-06-04T12:57:47;41.50;;;2.40;;
1703;SDS011;849;48.780;9.216;2023-06-04T13:00:18;41.50;;;2.30;;
1703;SDS011;849;48.780;9.216;2023-06-04T13:02:49;41.93;;;2.40;;
1703;SDS011;849;48.780;9.216;2023-06-04T13:05:21;41.07;;;2.23;;
1703;SDS011;849;48.780;9.216;2023-06-04T13:07:51;41.43;;;2.30;;
1703;SDS011;849;48.780;9.216;2023-06-04T13:10:22;40.30;;;2.10;;
1703;SDS011;849;48.780;9.216;2023-06-04T13:12:53;41.03;;;2.30;;
1703;SDS011;849;48.780;9.216;2023-06-04T13:15:24;40.60;;;2.10;;
1703;SDS011;849;48.780;9.216;2023-06-04T13:17:55;40.63;;;2.20;;
1703;SDS011;849;48.780;9.216;2023-06-04T13:20:26;41.23;;;2.20;;
1703;SDS011;849;48.780;9.216;2023-06-04T13:22:57;40.90;;;2.27;;
1703;SDS011;849;48.780;9.216;2023-06-04T13:25:27;40.80;;;2.20;;
1703;SDS011;849;48.780;9.216;2023-06-04T13:27:59;41.17;;;2.13;;
1703;SDS011;849;48.780;9.216;2023-06-04T13:30:30;41.13;;;2.23;;
1703;SDS011;849;48.780;9.216;2023-06-04T13:33:02;41.00;;;2.20;;
1703;SDS011;849;48.780;9.216;2023-06-04T13:35:33;41.33;;;2.20;;
1703;SDS011;849;48.780;9.216;2023-06-04T13:38:04;41.07;;;2.10;;
1703;SDS011;849;48.780;9.216;2023-06-04T13:40:36;40.40;;;2.17;;
1703;SDS011;849;48.780;9.216;2023-06-04T13:43:07;41.23;;;2.20;;
1703;SDS011;849;48.780;9.216;2023-06-04T13:45:39;40.50;;;2.20;;
1703;SDS011;849;48.780;9.216;2023-06-04T13:48:10;40.20;;;2.27;;
1703;SDS011;849;48.780;9.216;2023-06-04T13:50:41;40.87;;;2.30;;
1703;SDS011;849;48.780;9.216;2023-06-04T13:53:12;40.70;;;2.40;;
1703;SDS011;849;48.780;9.216;2023-06-04T13:55:43;41.03;;;2.20;;
1703;SDS011;849;48.780;9.216;2023-06-04T13:58:14;40.87;;;2.20;;
1703;SDS011;849;48.780;9.216;2023-06-04T14:00:45;40.60;;;2.10;;
1703;SDS011;849;48.780;9.216;2023-06-04T14:03:16;41.07;;;2.40;;
1703;SDS011;849;48.780;9.216;2023-06-04T14:05:47;41.03;;;2.17;;
1703;SDS011;849;48.780;9.216;2023-06-04T14:08:18;40.90;;;2.10;;
1703;SDS011;849;48.780;9.216;2023-06-04T14:10:49;40.77;;;2.20;;
1703;SDS011;849;48.780;9.216;2023-06-04T14:13:22;40.67;;;2.20;;
1703;SDS011;849;48.780;9.216;2023-06-04T14:15:52;40.77;;;2.10;;
1703;SDS011;849;48.780;9.216;2023-06-04T14:18:23;40.93;;;2.40;;
1703;SDS011;849;48.780;9.216;2023-06-04T14:20:49;40.87;;;2.20;;
1703;SDS011;849;48.780;9.216;2023-06-04T14:23:20;40.77;;;2.10;;
1703;SDS011;849;48.780;9.216;2023-06-04T14:25:51;40.50;;;2.10;;
1703;SDS011;849;48.780;9.216;2023-06-04T14:28:22;40.20;;;2.13;;
1703;SDS011;849;48.780;9.216;2023-06-04T14:30:53;40.07;;;2.10;;
1703;SDS011;849;48.780;9.216;2023-06-04T14:33:23;41.13;;;2.20;;
1703;SDS011;849;48.780;9.216;2023-06-04T14:35:54;40.93;;;2.30;;
1703;SDS011;849;48.780;9.216;2023-06-04T14:38:25;40.50;;;2.10;;
1703;SDS011;849;48.780;9.216;2023-06-04T14:40:56;40.87;;;2.13;;
1703;SDS011;849;48.780;9.216;2023-06-04T14:43:22;40.67;;;2.20;;
1703;SDS011;849;48.780;9.216;2023-06-04T14:45:53;40.97;;;2.17;;
1703;SDS011;849;48.780;9.216;2023-06-04T14:48:24;40.20;;;1.90;;
1703;SDS011;849;48.780;9.216;2023-06-04T14:50:55;40.80;;;1.93;;
1703;SDS011;849;48.780;9.216;2023-06-04T14:53:26;40.80;;;1.97;;
1703;SDS011;849;48.780;9.216;2023-06-04T14:55:56;40.80;;;2.30;;
1703;SDS011;849;48.780;9.216;2023-06-04T14:58:27;40.57;;;2.10;;
1703;SDS011;849;48.780;9.216;2023-06-04T15:00:58;40.87;;;2.20;;
1703;SDS011;849;48.780;9.216;2023-06-04T15:03:29;40.87;;;2.20;;
1703;SDS011;849;48.780;9.216;2023-06-04T15:06:00;40.70;;;2.17;;
1703;SDS011;849;48.780;9.216;2023-06-04T15:08:31;40.87;;;2.40;;
1703;SDS011;849;48.780;9.216;2023-06-04T15:11:02;40.87;;;2.00;;
1703;SDS011;849;48.780;9.216;2023-06-04T15:13:33;40.93;;;2.20;;
1703;SDS011;849;48.780;9.216;2023-06-04T15:16:03;40.70;;;2.20;;
1703;SDS011;849;48.780;9.216;2023-06-04T15:18:34;40.70;;;2.10;;
1703;SDS011;849;48.780;9.216;2023-06-04T15:21:05;41.00;;;2.10;;
1703;SDS011;849;48.780;9.216;2023-06-04T15:23:36;40.90;;;2.20;;
1703;SDS011;849;48.780;9.216;2023-06-04T15:26:07;40.70;;;2.10;;
1703;SDS011;849;48.780;9.216;2023-06-04T15:28:37;40.27;;;2.00;;
1703;SDS011;849;48.780;9.216;2023-06-04T15:31:08;41.47;;;2.10;;
1703;SDS011;849;48.780;9.216;2023-06-04T15:33:39;41.37;;;2.30;;
1703;SDS011;849;48.780;9.216;2023-06-04T15:36:10;41.30;;;2.30;;
1703;SDS011;849;48.780;9.216;2023-06-04T15:38:41;41.47;;;2.60;;
1703;SDS011;849;48.780;9.216;2023-06-04T15:41:12;41.37;;;2.30;;
1703;SDS011;849;48.780;9.216;2023-06-04T15:43:43;41.40;;;2.10;;
1703;SDS011;849;48.780;9.216;2023-06-04T15:46:13;41.50;;;2.43;;
1703;SDS011;849;48.780;9.216;2023-06-04T15:48:44;41.50;;;2.40;;
1703;SDS011;849;48.780;9.216;2023-06-04T15:51:15;41.90;;;2.50;;